Annette Island, AK

11:25 PM AKDT on July 22, 2014 (GMT -0800)
Metlakatla (PAMM) Elev 0 ft | 55.13 °N, 131.58 °W | Change Station

Current weather conditions updated 9 minutes ago

Clear
Clear
55 °F
Feels Like 55 °F
N
0
Wind Variable Wind from North

Tomorrow is forecast to be Warmer than today.

Today
High -- | Low -- °F
--% Chance of Precip.
Yesterday
High -- | Low -- °F
Precip. -- in
4:38 AM 9:06 PM
Waning Crescent, 12% visible
Pressure 30.14 in
Visibility 10.0 miles
Clouds Clear
Dew Point 50 °F
Humidity 82%
Rainfall 0.00 in
Snow Depth Not available.
UV 0 out of 12
Pollen Not available.
Air Quality Not available.
Flu Activity Not available.
METAR PAMM 230716Z AUTO 00000KT 10SM CLR 13/10 A3014 RMK AO1

More Conditions Fewer Conditions

Pressure 30.14 in
Visibility 10.0 miles
Clouds Clear
Dew Point 50 °F
Humidity 82%
Rainfall 0.00 in
Snow Depth Not available.
UV 0 out of 12
Pollen Not available.
Air Quality Not available.
Flu Activity Not available.
METAR PAMM 230716Z AUTO 00000KT 10SM CLR 13/10 A3014 RMK AO1

More Conditions Fewer Conditions

10-Day Weather Forecast

Almanac

Astronomy

Jul. 22, 2014 Rise Set
Actual Time 4:38 AM AKDT 9:06 PM AKDT
Civil Twilight 3:48 AM AKDT 9:55 PM AKDT
Nautical Twilight 2:28 AM AKDT 11:13 PM AKDT
Astronomical Twilight Sun does not rise 12:20 AM AKDT
Moon 1:24 AM AKDT (7/22) 5:44 PM AKDT (7/22)
Length of Visible Light 18h 07m
Length of Day
16h 27m
Tomorrow will be 3m 12s shorter.
Waning Crescent, 12% of the Moon is Illuminated
Jul 23
Waning Crescent
Jul 26
New
Aug 3
First Quarter
Aug 10
Full
Aug 17
Last Quarter

Community

WunderPhotos

Upload Photos

1,736,527 photos uploaded!

Nearby

Snow Depth

Station Depth Elevation
Long Lake 0 in 820 ft
Upper Tsaina River 0 in 1750 ft
Moraine 0 in 2100 ft
Nuka Glacier 137 in 1250 ft
Grouse Creek Divide 0 in 700 ft

Earthquake Activity

City Distance Mag. Time & Date
No recent earthquake activity has been reported nearby.
Minimum magnitude displayed is 2.5.

Coastal Water Temperatures

Place Temperature
No Stations Reporting

Nearby Weather Stations

Station Location Temp. Dew Point Humidity Wind Precip. Elev Updated Type
CRN NOAA/NWS ANNETTE ISLAND 6 S AK , Metlakatla, AK 55 °F - - North  at  - 0.00 in / hr 104 ft 10:30 PM AKDT MADIS
Bailey Blvd, Ketchikan, AK 57.3 °F 52 °F 83% NNE  at  0.0 mph 0.00 in / hr 240 ft 11:20 PM AKDT Normal

Show More Stations Show Fewer Stations